createdAt,value
2023-05-13T00:01:54.793Z,71.98
2023-05-13T00:04:24.442Z,71.63
2023-05-13T00:06:52.819Z,71.01
2023-05-13T00:09:21.068Z,70.95
2023-05-13T00:11:49.461Z,70.66
2023-05-13T00:14:17.729Z,70.49
2023-05-13T00:16:46.465Z,69.88
2023-05-13T00:19:15.270Z,69.50
2023-05-13T00:21:44.939Z,69.14
2023-05-13T00:24:13.268Z,68.98
2023-05-13T00:26:41.535Z,68.85
2023-05-13T00:29:09.959Z,68.40
2023-05-13T00:31:38.290Z,68.30
2023-05-13T00:34:06.818Z,68.02
2023-05-13T00:36:35.089Z,67.79
2023-05-13T00:39:04.900Z,67.61
2023-05-13T00:41:33.190Z,67.45
2023-05-13T00:44:01.548Z,67.52
2023-05-13T00:46:33.347Z,67.41
2023-05-13T00:49:02.177Z,67.48
2023-05-13T00:51:30.487Z,67.45
2023-05-13T00:54:00.385Z,67.03
2023-05-13T00:56:30.117Z,66.71
2023-05-13T00:58:58.492Z,66.27
2023-05-13T01:01:36.022Z,66.42
2023-05-13T01:04:18.354Z,65.78
2023-05-13T01:06:56.052Z,65.90
2023-05-13T01:09:36.926Z,65.83
2023-05-13T01:12:10.899Z,65.36
2023-05-13T01:14:52.173Z,65.22
2023-05-13T01:17:26.383Z,65.47
2023-05-13T01:19:57.441Z,65.43
2023-05-13T01:22:27.811Z,65.25
2023-05-13T01:24:56.859Z,65.02
2023-05-13T01:27:25.927Z,64.63
2023-05-13T01:29:55.765Z,64.27
2023-05-13T01:32:29.010Z,64.31
2023-05-13T01:34:58.917Z,64.54
2023-05-13T01:37:29.887Z,64.61
2023-05-13T01:39:58.488Z,64.37
2023-05-13T01:42:32.169Z,64.50
2023-05-13T01:45:00.734Z,63.85
2023-05-13T01:47:29.138Z,63.57
2023-05-13T01:49:58.077Z,63.60
2023-05-13T01:52:27.785Z,63.24
2023-05-13T01:54:56.038Z,63.03
2023-05-13T01:57:24.287Z,63.24
2023-05-13T01:59:53.118Z,62.99
2023-05-13T02:02:21.383Z,62.27
2023-05-13T02:04:50.000Z,61.82
2023-05-13T02:07:18.410Z,62.13
2023-05-13T02:09:49.628Z,62.17
2023-05-13T02:12:18.052Z,61.75
2023-05-13T02:14:46.340Z,61.33
2023-05-13T02:17:14.675Z,60.88
2023-05-13T02:19:43.810Z,59.67
2023-05-13T02:22:12.108Z,59.25
2023-05-13T02:24:41.198Z,59.32
2023-05-13T02:27:12.718Z,59.23
2023-05-13T02:29:41.255Z,59.32
2023-05-13T02:32:10.224Z,60.21
2023-05-13T02:34:38.607Z,60.64
2023-05-13T02:37:07.285Z,60.66
2023-05-13T02:39:41.622Z,60.86
2023-05-13T02:42:11.730Z,61.44
2023-05-13T02:44:40.445Z,61.87
2023-05-13T02:47:09.543Z,62.71
2023-05-13T02:49:38.019Z,63.35
2023-05-13T02:52:08.192Z,63.58
2023-05-13T02:54:38.018Z,63.91
2023-05-13T02:57:06.828Z,63.97
2023-05-13T02:59:36.968Z,64.95
2023-05-13T03:02:05.498Z,65.14
2023-05-13T03:04:33.887Z,65.22
2023-05-13T03:07:02.256Z,65.63
2023-05-13T03:09:31.582Z,65.17
2023-05-13T03:11:59.905Z,65.80
2023-05-13T03:14:28.985Z,66.10
2023-05-13T03:16:59.597Z,66.42
2023-05-13T03:19:28.758Z,66.93
2023-05-13T03:21:57.262Z,67.34
2023-05-13T03:24:25.845Z,67.90
2023-05-13T03:26:54.431Z,68.33
2023-05-13T03:29:22.799Z,68.76
2023-05-13T03:31:53.739Z,69.61
2023-05-13T03:34:23.463Z,69.70
2023-05-13T03:36:51.873Z,69.94
2023-05-13T03:39:20.252Z,70.43
2023-05-13T03:41:48.672Z,70.79
2023-05-13T03:44:17.643Z,71.13
2023-05-13T03:46:46.091Z,71.56
2023-05-13T03:49:14.509Z,72.04
2023-05-13T03:51:44.203Z,72.52
2023-05-13T03:54:12.542Z,73.08
2023-05-13T03:56:41.612Z,73.32
2023-05-13T03:59:09.983Z,73.43
2023-05-13T04:01:38.219Z,73.93
2023-05-13T04:04:06.712Z,74.08
2023-05-13T04:06:35.019Z,74.14
2023-05-13T04:09:06.066Z,74.60
2023-05-13T04:11:34.407Z,74.78
2023-05-13T04:14:02.632Z,75.20
2023-05-13T04:16:30.964Z,75.30
2023-05-13T04:18:59.406Z,75.50
2023-05-13T04:21:29.221Z,75.75
2023-05-13T04:23:57.516Z,75.89
2023-05-13T04:26:27.231Z,76.04
2023-05-13T04:28:55.549Z,75.99
2023-05-13T04:31:23.984Z,76.27
2023-05-13T04:33:52.531Z,76.78
2023-05-13T04:36:20.944Z,76.60
2023-05-13T04:38:49.295Z,76.43
2023-05-13T04:41:18.691Z,76.59
2023-05-13T04:43:49.229Z,76.67
2023-05-13T04:46:17.749Z,76.33
2023-05-13T04:48:48.297Z,76.20
2023-05-13T04:51:17.236Z,76.34
2023-05-13T04:53:46.400Z,76.62
2023-05-13T04:56:16.262Z,76.51
2023-05-13T04:58:45.011Z,76.72
2023-05-13T05:01:16.452Z,76.54
2023-05-13T05:03:45.104Z,76.14
2023-05-13T05:06:13.366Z,76.37
2023-05-13T05:08:42.663Z,76.38
2023-05-13T05:11:11.227Z,76.27
2023-05-13T05:13:39.715Z,76.08
2023-05-13T05:16:09.108Z,75.80
2023-05-13T05:18:41.237Z,75.40
2023-05-13T05:21:09.802Z,75.16
2023-05-13T05:23:38.153Z,75.24
2023-05-13T05:26:11.528Z,75.35
2023-05-13T05:28:43.348Z,75.60
2023-05-13T05:31:11.993Z,75.17
2023-05-13T05:33:42.453Z,75.09
2023-05-13T05:36:10.941Z,75.07
2023-05-13T05:38:39.710Z,74.51
2023-05-13T05:41:08.783Z,74.15
2023-05-13T05:43:37.242Z,74.12
2023-05-13T05:46:06.060Z,73.75
2023-05-13T05:48:34.933Z,73.26
2023-05-13T05:51:06.673Z,72.70
2023-05-13T05:53:40.940Z,72.54
2023-05-13T05:56:10.475Z,72.38
2023-05-13T05:58:39.136Z,71.92
2023-05-13T06:01:07.480Z,70.82
2023-05-13T06:03:35.861Z,70.28
2023-05-13T06:06:06.321Z,70.25
2023-05-13T06:08:35.425Z,69.99
2023-05-13T06:11:03.787Z,68.62
2023-05-13T06:13:32.142Z,68.67
2023-05-13T06:16:00.486Z,68.36
2023-05-13T06:18:28.909Z,67.04
2023-05-13T06:20:57.200Z,66.66
2023-05-13T06:23:27.096Z,65.97
2023-05-13T06:25:55.466Z,66.18
2023-05-13T06:28:23.694Z,66.36
2023-05-13T06:30:53.796Z,65.33
2023-05-13T06:33:22.338Z,64.65
2023-05-13T06:35:50.742Z,63.78
2023-05-13T06:38:21.543Z,64.35
2023-05-13T06:40:53.055Z,63.73
2023-05-13T06:43:27.609Z,63.71
2023-05-13T06:45:59.819Z,62.76
2023-05-13T06:48:29.799Z,62.43
2023-05-13T06:50:58.497Z,62.83
2023-05-13T06:53:26.820Z,61.87
2023-05-13T06:55:56.506Z,62.09
2023-05-13T06:58:24.818Z,61.88
2023-05-13T07:00:53.171Z,61.82
2023-05-13T07:03:21.586Z,61.56
2023-05-13T07:05:49.921Z,61.76
2023-05-13T07:08:18.911Z,60.96
2023-05-13T07:10:47.160Z,59.92
2023-05-13T07:13:17.594Z,59.23
2023-05-13T07:15:47.319Z,58.74
2023-05-13T07:18:15.823Z,58.73
2023-05-13T07:20:44.239Z,58.75
2023-05-13T07:23:12.519Z,58.72
2023-05-13T07:25:41.028Z,58.88
2023-05-13T07:28:09.402Z,59.20
2023-05-13T07:30:41.706Z,57.63
2023-05-13T07:33:10.143Z,57.30
2023-05-13T07:35:38.621Z,57.08
2023-05-13T07:38:13.357Z,56.09
2023-05-13T07:40:42.220Z,56.43
2023-05-13T07:43:10.489Z,56.65
2023-05-13T07:45:40.516Z,56.45
2023-05-13T07:48:10.035Z,56.67
2023-05-13T07:50:38.569Z,54.53
2023-05-13T07:53:06.866Z,54.48
2023-05-13T07:55:35.162Z,53.25
2023-05-13T07:58:03.504Z,51.96
2023-05-13T08:00:31.974Z,52.03
2023-05-13T08:03:01.991Z,52.43
2023-05-13T08:05:30.392Z,52.29
2023-05-13T08:07:59.354Z,51.99
2023-05-13T08:10:27.694Z,52.24
2023-05-13T08:12:57.719Z,53.03
2023-05-13T08:15:27.143Z,52.22
2023-05-13T08:17:55.788Z,52.89
2023-05-13T08:20:29.872Z,53.48
2023-05-13T08:22:58.889Z,52.50
2023-05-13T08:25:27.247Z,52.57
2023-05-13T08:27:55.648Z,50.94
2023-05-13T08:30:24.205Z,51.65
2023-05-13T08:32:52.714Z,51.20
2023-05-13T08:35:21.782Z,50.84
2023-05-13T08:37:51.677Z,50.40
2023-05-13T08:40:21.191Z,48.79
2023-05-13T08:42:52.842Z,49.37
2023-05-13T08:45:23.448Z,48.37
2023-05-13T08:47:53.696Z,48.18
2023-05-13T08:50:23.279Z,49.01
2023-05-13T08:52:54.254Z,48.80
2023-05-13T08:55:24.194Z,49.53
2023-05-13T08:57:53.574Z,51.39
2023-05-13T09:00:22.409Z,50.21
2023-05-13T09:02:52.057Z,50.67
2023-05-13T09:05:21.974Z,50.06
2023-05-13T09:07:52.306Z,49.38
2023-05-13T09:10:22.510Z,52.22
2023-05-13T09:12:53.226Z,51.37
2023-05-13T09:15:24.015Z,50.81
2023-05-13T09:17:57.012Z,51.13
2023-05-13T09:20:27.058Z,51.39
2023-05-13T09:23:01.045Z,53.51
2023-05-13T09:25:30.611Z,53.19
2023-05-13T09:28:00.767Z,53.22
2023-05-13T09:30:31.010Z,54.05
2023-05-13T09:33:11.055Z,55.07
2023-05-13T09:35:42.631Z,54.62
2023-05-13T09:38:17.892Z,55.13
2023-05-13T09:40:53.627Z,53.32
2023-05-13T09:43:23.914Z,53.97
2023-05-13T09:45:55.326Z,53.99
2023-05-13T09:48:26.455Z,53.94
2023-05-13T09:50:56.108Z,54.04
2023-05-13T09:53:25.968Z,55.61
2023-05-13T09:55:58.083Z,54.08
2023-05-13T09:58:28.438Z,53.93
2023-05-13T10:00:57.558Z,54.14
2023-05-13T10:03:26.453Z,54.22
2023-05-13T10:05:55.194Z,54.26
2023-05-13T10:08:26.096Z,53.00
2023-05-13T10:10:57.487Z,53.48
2023-05-13T10:13:26.615Z,53.00
2023-05-13T10:15:57.048Z,52.53
2023-05-13T10:18:25.614Z,52.24
2023-05-13T10:20:54.184Z,52.96
2023-05-13T10:23:25.079Z,54.38
2023-05-13T10:25:55.871Z,53.95
2023-05-13T10:28:26.444Z,55.30
2023-05-13T10:30:54.835Z,55.01
2023-05-13T10:33:24.646Z,55.00
2023-05-13T10:36:07.950Z,54.06
2023-05-13T10:38:58.184Z,54.54
2023-05-13T10:42:09.844Z,54.85
2023-05-13T10:44:38.336Z,55.34
2023-05-13T10:47:06.742Z,54.55
2023-05-13T10:49:35.904Z,54.37
2023-05-13T10:52:10.950Z,55.32
2023-05-13T10:54:42.994Z,55.22
2023-05-13T10:57:11.601Z,55.76
2023-05-13T11:00:16.377Z,55.54
2023-05-13T11:02:45.001Z,55.02
2023-05-13T11:05:21.361Z,55.59
2023-05-13T11:07:57.499Z,55.91
2023-05-13T11:10:30.476Z,55.41
2023-05-13T11:13:24.750Z,55.34
2023-05-13T11:15:55.872Z,54.72
2023-05-13T11:18:32.029Z,54.54
2023-05-13T11:21:05.874Z,53.54
2023-05-13T11:23:52.046Z,53.52
2023-05-13T11:26:23.018Z,53.62
2023-05-13T11:29:04.775Z,53.98
2023-05-13T11:31:46.094Z,54.24
2023-05-13T11:34:17.081Z,53.79
2023-05-13T11:36:47.699Z,54.64
2023-05-13T11:39:17.556Z,55.42
2023-05-13T11:41:49.034Z,54.16
2023-05-13T11:44:19.796Z,54.73
2023-05-13T11:46:53.229Z,54.09
2023-05-13T11:49:35.416Z,54.71
2023-05-13T11:52:05.684Z,55.12
2023-05-13T11:54:42.129Z,54.68
2023-05-13T11:57:21.677Z,54.69
2023-05-13T12:00:02.211Z,54.38
2023-05-13T12:02:34.878Z,53.22
2023-05-13T12:05:05.554Z,53.93
2023-05-13T12:07:34.568Z,53.99
2023-05-13T12:10:04.741Z,54.46
2023-05-13T12:12:37.515Z,53.91
2023-05-13T12:15:10.183Z,54.25
2023-05-13T12:17:39.082Z,53.96
2023-05-13T12:20:14.162Z,54.71
2023-05-13T12:22:54.571Z,54.50
2023-05-13T12:25:43.842Z,53.98
2023-05-13T12:28:17.631Z,54.44
2023-05-13T12:30:52.627Z,55.89
2023-05-13T12:33:23.235Z,54.69
2023-05-13T12:35:53.786Z,54.74
2023-05-13T12:38:24.560Z,54.36
2023-05-13T12:40:54.695Z,54.77
2023-05-13T12:43:24.846Z,54.94
2023-05-13T12:45:55.780Z,54.37
2023-05-13T12:48:27.170Z,54.46
2023-05-13T12:50:56.446Z,54.16
2023-05-13T12:53:24.939Z,54.40
2023-05-13T12:55:53.316Z,55.40
2023-05-13T12:58:21.681Z,56.06
2023-05-13T13:00:51.475Z,57.08
2023-05-13T13:03:21.771Z,56.80
2023-05-13T13:05:53.154Z,55.99
2023-05-13T13:08:21.936Z,55.56
2023-05-13T13:10:50.306Z,55.29
2023-05-13T13:13:18.644Z,54.96
2023-05-13T13:15:46.995Z,56.49
2023-05-13T13:18:16.677Z,56.17
2023-05-13T13:20:45.017Z,55.68
2023-05-13T13:23:13.351Z,56.32
2023-05-13T13:25:41.741Z,57.23
2023-05-13T13:28:10.119Z,57.54
2023-05-13T13:30:38.471Z,57.60
2023-05-13T13:33:06.788Z,57.35
2023-05-13T13:35:36.885Z,57.35
2023-05-13T13:38:05.362Z,57.13
2023-05-13T13:40:33.645Z,57.19
2023-05-13T13:43:01.891Z,57.96
2023-05-13T13:45:30.386Z,57.99
2023-05-13T13:47:59.120Z,57.83
2023-05-13T13:50:27.874Z,57.11
2023-05-13T13:52:57.466Z,56.76
2023-05-13T13:55:25.995Z,56.82
2023-05-13T13:57:54.295Z,57.11
2023-05-13T14:00:22.916Z,57.33
2023-05-13T14:02:52.725Z,56.79
2023-05-13T14:05:21.386Z,56.46
2023-05-13T14:07:53.802Z,56.43
2023-05-13T14:10:23.798Z,57.00
2023-05-13T14:12:52.290Z,56.91
2023-05-13T14:15:20.560Z,56.96
2023-05-13T14:17:48.971Z,56.51
2023-05-13T14:20:17.307Z,57.45
2023-05-13T14:22:45.612Z,57.60
2023-05-13T14:25:14.631Z,57.19
2023-05-13T14:27:44.272Z,56.79
2023-05-13T14:30:13.300Z,56.85
2023-05-13T14:32:44.950Z,57.49
2023-05-13T14:35:14.720Z,56.98
2023-05-13T14:37:44.398Z,56.80
2023-05-13T14:40:12.885Z,56.68
2023-05-13T14:42:41.301Z,57.30
2023-05-13T14:45:15.927Z,58.03
2023-05-13T14:47:46.066Z,58.82
2023-05-13T14:50:15.179Z,58.99
2023-05-13T14:52:43.585Z,59.27
2023-05-13T14:55:12.048Z,59.39
2023-05-13T14:57:40.635Z,59.47
2023-05-13T15:00:12.491Z,59.87
2023-05-13T15:02:41.147Z,59.80
2023-05-13T15:05:11.237Z,60.28
2023-05-13T15:07:39.665Z,60.42
2023-05-13T15:10:09.410Z,61.03
2023-05-13T15:12:37.926Z,61.57
2023-05-13T15:15:07.986Z,61.32
2023-05-13T15:17:37.805Z,60.75
2023-05-13T15:20:07.627Z,61.19
2023-05-13T15:22:35.919Z,61.60
2023-05-13T15:25:04.615Z,61.43
2023-05-13T15:27:32.980Z,61.32
2023-05-13T15:30:01.348Z,61.79
2023-05-13T15:32:30.125Z,61.31
2023-05-13T15:35:00.009Z,61.19
2023-05-13T15:37:28.309Z,61.27
2023-05-13T15:39:56.605Z,60.78
2023-05-13T15:42:24.972Z,60.68
2023-05-13T15:44:53.357Z,60.51
2023-05-13T15:47:21.748Z,61.06
2023-05-13T15:49:51.221Z,61.39
2023-05-13T15:52:20.944Z,61.13
2023-05-13T15:54:49.311Z,60.41
2023-05-13T15:57:19.241Z,60.50
2023-05-13T15:59:47.582Z,60.30
2023-05-13T16:02:18.317Z,60.57
2023-05-13T16:04:46.897Z,60.72
2023-05-13T16:07:15.418Z,60.11
2023-05-13T16:09:45.393Z,60.30
2023-05-13T16:12:13.712Z,60.12
2023-05-13T16:14:42.004Z,59.79
2023-05-13T16:17:10.810Z,60.63
2023-05-13T16:19:39.167Z,60.05
2023-05-13T16:22:27.953Z,60.30
2023-05-13T16:25:00.599Z,60.40
2023-05-13T16:27:30.152Z,60.16
2023-05-13T16:29:59.226Z,60.57
2023-05-13T16:32:29.496Z,60.57
2023-05-13T16:34:58.110Z,61.18
2023-05-13T16:37:26.464Z,61.47
2023-05-13T16:39:54.830Z,61.18
2023-05-13T16:42:24.721Z,61.91
2023-05-13T16:44:53.074Z,62.58
2023-05-13T16:47:21.886Z,62.85
2023-05-13T16:49:51.052Z,62.99
2023-05-13T16:52:19.434Z,63.14
2023-05-13T16:54:47.883Z,62.94
2023-05-13T16:57:16.489Z,63.23
2023-05-13T16:59:46.230Z,62.86
2023-05-13T17:02:14.868Z,63.33
2023-05-13T17:04:43.192Z,63.45
2023-05-13T17:07:11.771Z,63.79
2023-05-13T17:09:40.199Z,63.92
2023-05-13T17:12:09.427Z,63.81
2023-05-13T17:14:37.972Z,64.18
2023-05-13T17:17:07.834Z,64.70
2023-05-13T17:19:36.205Z,64.80
2023-05-13T17:22:04.543Z,65.23
2023-05-13T17:24:32.804Z,65.77
2023-05-13T17:27:01.556Z,66.87
2023-05-13T17:29:29.853Z,67.14
2023-05-13T17:31:58.294Z,67.04
2023-05-13T17:34:27.967Z,67.28
2023-05-13T17:36:56.317Z,67.17
2023-05-13T17:39:24.584Z,67.07
2023-05-13T17:41:53.088Z,67.10
2023-05-13T17:44:22.824Z,66.69
2023-05-13T17:46:51.226Z,66.44
2023-05-13T17:49:20.898Z,66.87
2023-05-13T17:51:50.684Z,67.52
2023-05-13T17:54:19.024Z,67.49
2023-05-13T17:56:47.429Z,67.40
2023-05-13T17:59:16.080Z,67.55
2023-05-13T18:01:44.517Z,68.45
2023-05-13T18:04:12.865Z,68.27
2023-05-13T18:06:41.226Z,68.47
2023-05-13T18:09:11.237Z,68.30
2023-05-13T18:11:42.620Z,68.22
2023-05-13T18:14:10.984Z,68.03
2023-05-13T18:16:39.387Z,68.18
2023-05-13T18:19:07.872Z,68.05
2023-05-13T18:21:36.271Z,68.41
2023-05-13T18:24:04.927Z,68.90
2023-05-13T18:26:36.941Z,69.19
2023-05-13T18:29:05.226Z,68.65
2023-05-13T18:31:34.772Z,68.92
2023-05-13T18:34:04.462Z,69.14
2023-05-13T18:36:33.130Z,69.52
2023-05-13T18:39:01.428Z,69.17
2023-05-13T18:41:29.800Z,69.48
2023-05-13T18:43:59.390Z,69.73
2023-05-13T18:46:27.799Z,69.73
2023-05-13T18:48:56.280Z,69.57
2023-05-13T18:51:24.712Z,69.62
2023-05-13T18:53:53.141Z,69.97
2023-05-13T18:56:21.559Z,69.73
2023-05-13T18:58:50.408Z,70.23
2023-05-13T19:01:20.230Z,70.11
2023-05-13T19:03:48.996Z,70.34
2023-05-13T19:06:17.406Z,70.75
2023-05-13T19:08:46.199Z,70.61
2023-05-13T19:11:14.517Z,70.93
2023-05-13T19:13:47.352Z,70.85
2023-05-13T19:16:16.249Z,71.15
2023-05-13T19:18:46.000Z,70.86
2023-05-13T19:21:14.489Z,71.27
2023-05-13T19:23:42.931Z,71.51
2023-05-13T19:26:11.319Z,71.66
2023-05-13T19:28:40.287Z,71.53
2023-05-13T19:31:08.620Z,71.38
2023-05-13T19:33:37.280Z,71.50
2023-05-13T19:36:08.814Z,71.71
2023-05-13T19:38:37.864Z,71.78
2023-05-13T19:41:06.295Z,71.70
2023-05-13T19:43:34.655Z,71.48
2023-05-13T19:46:03.052Z,71.65
2023-05-13T19:48:31.722Z,71.66
2023-05-13T19:50:59.991Z,71.69
2023-05-13T19:53:29.823Z,71.86
2023-05-13T19:55:58.087Z,71.67
2023-05-13T19:58:26.573Z,71.77
2023-05-13T20:00:56.221Z,71.94
2023-05-13T20:03:24.715Z,72.43
2023-05-13T20:05:53.874Z,72.52
2023-05-13T20:08:22.400Z,72.98
2023-05-13T20:10:52.187Z,73.12
2023-05-13T20:13:20.667Z,73.17
2023-05-13T20:15:49.079Z,73.70
2023-05-13T20:18:17.590Z,73.64
2023-05-13T20:20:47.260Z,73.84
2023-05-13T20:23:16.643Z,73.81
2023-05-13T20:25:47.706Z,73.77
2023-05-13T20:28:17.445Z,73.96
2023-05-13T20:30:46.014Z,73.84
2023-05-13T20:33:14.581Z,73.98
2023-05-13T20:35:43.133Z,74.16
2023-05-13T20:38:12.295Z,74.30
2023-05-13T20:40:41.439Z,74.87
2023-05-13T20:43:09.865Z,74.70
2023-05-13T20:45:39.921Z,74.88
2023-05-13T20:48:09.281Z,74.96
2023-05-13T20:50:38.096Z,74.90
2023-05-13T20:53:06.428Z,74.92
2023-05-13T20:55:34.822Z,75.67
2023-05-13T20:58:03.206Z,75.65
2023-05-13T21:00:31.725Z,75.41
2023-05-13T21:03:01.652Z,75.19
2023-05-13T21:05:30.229Z,75.58
2023-05-13T21:07:58.511Z,75.36
2023-05-13T21:10:27.140Z,75.25
2023-05-13T21:12:55.437Z,75.69
2023-05-13T21:15:23.938Z,75.73
2023-05-13T21:17:52.354Z,75.89
2023-05-13T21:20:22.607Z,75.99
2023-05-13T21:22:51.667Z,76.68
2023-05-13T21:25:20.132Z,76.75
2023-05-13T21:27:50.218Z,77.01
2023-05-13T21:30:18.653Z,76.82
2023-05-13T21:32:47.214Z,76.70
2023-05-13T21:35:15.863Z,76.82
2023-05-13T21:37:47.374Z,76.74
2023-05-13T21:40:16.512Z,76.83
2023-05-13T21:42:44.883Z,77.02
2023-05-13T21:45:15.076Z,77.04
2023-05-13T21:47:43.446Z,77.31
2023-05-13T21:50:12.813Z,77.31
2023-05-13T21:52:41.314Z,77.69
2023-05-13T21:55:11.815Z,77.71
2023-05-13T21:57:40.175Z,77.92
2023-05-13T22:00:15.337Z,77.92
2023-05-13T22:02:47.265Z,78.05
2023-05-13T22:05:16.436Z,78.29
2023-05-13T22:07:44.846Z,78.37
2023-05-13T22:10:14.870Z,78.33
2023-05-13T22:12:43.245Z,78.41
2023-05-13T22:15:12.751Z,78.27
2023-05-13T22:17:41.305Z,78.56
2023-05-13T22:20:10.828Z,78.85
2023-05-13T22:22:39.250Z,78.73
2023-05-13T22:25:08.405Z,78.98
2023-05-13T22:27:38.171Z,78.90
2023-05-13T22:30:08.512Z,78.97
2023-05-13T22:32:38.420Z,79.42
2023-05-13T22:35:08.603Z,79.35
2023-05-13T22:37:36.938Z,79.61
2023-05-13T22:40:06.514Z,80.05
2023-05-13T22:42:34.838Z,79.75
2023-05-13T22:45:05.513Z,79.90
2023-05-13T22:47:33.829Z,79.91
2023-05-13T22:50:02.165Z,80.32
2023-05-13T22:52:30.449Z,80.00
2023-05-13T22:54:58.727Z,79.78
2023-05-13T22:57:28.792Z,79.59
2023-05-13T22:59:57.145Z,79.85
2023-05-13T23:02:26.764Z,80.08
2023-05-13T23:04:55.040Z,79.90
2023-05-13T23:07:23.316Z,80.23
2023-05-13T23:09:51.827Z,80.31
2023-05-13T23:12:20.090Z,80.22
2023-05-13T23:14:49.533Z,80.41
2023-05-13T23:17:17.887Z,80.05
2023-05-13T23:19:47.582Z,80.04
2023-05-13T23:22:16.049Z,80.00
2023-05-13T23:24:44.380Z,79.91
2023-05-13T23:27:12.698Z,80.00
2023-05-13T23:29:40.966Z,80.00
2023-05-13T23:32:09.457Z,80.00
2023-05-13T23:34:37.811Z,80.08
2023-05-13T23:37:07.692Z,80.01
2023-05-13T23:39:35.972Z,79.87
2023-05-13T23:42:04.573Z,79.72
2023-05-13T23:44:32.909Z,79.62
2023-05-13T23:47:01.182Z,79.88
2023-05-13T23:49:29.516Z,79.75
2023-05-13T23:51:57.902Z,79.37
2023-05-13T23:54:27.567Z,79.37
2023-05-13T23:56:55.805Z,78.92
2023-05-13T23:59:24.181Z,78.91
